Hovedside
METAR-TAF:

METAR-TAF

Lufthavner :

Kemi, Finland

Kemi-Torneå lufthavn

breddegrad: 65-47N, lengdegrad: 024-35E, høyde over havet: 15 m

Gjeldene værobservasjon

Denne rapporten ble laget for 16 minutter siden, klokken 05:50 UTC
Vind 4 kt fra Vest-nordvest, skiftende mellom Vest og Nord-nordvest
Temperatur -6°C
Luftfuktighet 68%
Trykk 1012 hPa
Sikt 10 km eller mer
ingen skyer under 1500 m og ingen bygeskyer

METAR: EFKE 240550Z AUTO 30004KT 260V340 CAVOK M06/M11 Q1012

Tid: 08:06 (06:06 UTC)

Varsel

Denne rapporten ble laget for 41 minutter siden, klokken 05:25 UTC
Varsel gyldig fra 24. klokken 06 UTC til 24. klokken 15 UTC
Vind 5 kt fra Nordvest
Sikt 10 km eller mer
ingen skyer under 1500 m og ingen bygeskyer

TAF: EFKE 240525Z 2406/2415 31005KT CAVOK

Værobservasjoner og værvarsel for over 4000 flyplasser (METAR- og TAF-rapporter).

Tilgjengelige stasjoner er representert av de røde og gule prikkene på kartet.

Hold musepekeren over prikken for å se navnet på stasjonen.

Klikk så for å se værobservasjoner og -varsler.

For å forandre kartet kan du klikke på den grønne knappen med svart kryss for å zoome inn, på den grønne knappen med strek for å zoome ut, eller på de grønne pilene for å se tilstøtende kart.


METAR-TAF: